sensor_id;sensor_type;location;lat;lon;timestamp;P1;durP1;ratioP1;P2;durP2;ratioP2
3845;SDS011;1938;50.812;7.738;2023-02-01T00:01:42;27.60;;;12.07;;
3845;SDS011;1938;50.812;7.738;2023-02-01T00:04:08;25.53;;;9.73;;
3845;SDS011;1938;50.812;7.738;2023-02-01T00:06:33;30.93;;;11.70;;
3845;SDS011;1938;50.812;7.738;2023-02-01T00:08:59;26.30;;;10.20;;
3845;SDS011;1938;50.812;7.738;2023-02-01T00:11:24;14.00;;;6.67;;
3845;SDS011;1938;50.812;7.738;2023-02-01T00:13:50;28.63;;;11.93;;
3845;SDS011;1938;50.812;7.738;2023-02-01T00:18:43;22.13;;;9.80;;
3845;SDS011;1938;50.812;7.738;2023-02-01T00:21:12;30.47;;;10.07;;
3845;SDS011;1938;50.812;7.738;2023-02-01T00:23:40;45.17;;;13.03;;
3845;SDS011;1938;50.812;7.738;2023-02-01T00:26:13;34.93;;;13.83;;
3845;SDS011;1938;50.812;7.738;2023-02-01T00:28:41;18.47;;;7.17;;
3845;SDS011;1938;50.812;7.738;2023-02-01T00:31:06;30.50;;;13.03;;
3845;SDS011;1938;50.812;7.738;2023-02-01T00:33:32;20.97;;;10.10;;
3845;SDS011;1938;50.812;7.738;2023-02-01T00:35:58;26.53;;;11.57;;
3845;SDS011;1938;50.812;7.738;2023-02-01T00:38:25;21.17;;;8.60;;
3845;SDS011;1938;50.812;7.738;2023-02-01T00:40:52;25.50;;;11.30;;
3845;SDS011;1938;50.812;7.738;2023-02-01T00:43:17;31.07;;;10.43;;
3845;SDS011;1938;50.812;7.738;2023-02-01T00:45:45;31.77;;;9.90;;
3845;SDS011;1938;50.812;7.738;2023-02-01T00:48:11;34.43;;;13.50;;
3845;SDS011;1938;50.812;7.738;2023-02-01T00:50:41;18.60;;;8.20;;
3845;SDS011;1938;50.812;7.738;2023-02-01T00:53:08;12.50;;;6.60;;
3845;SDS011;1938;50.812;7.738;2023-02-01T00:55:34;12.90;;;6.87;;
3845;SDS011;1938;50.812;7.738;2023-02-01T00:58:01;46.53;;;12.13;;
3845;SDS011;1938;50.812;7.738;2023-02-01T01:00:26;21.00;;;9.53;;
3845;SDS011;1938;50.812;7.738;2023-02-01T01:02:52;18.20;;;8.57;;
3845;SDS011;1938;50.812;7.738;2023-02-01T01:05:18;33.87;;;14.73;;
3845;SDS011;1938;50.812;7.738;2023-02-01T01:07:44;25.13;;;10.00;;
3845;SDS011;1938;50.812;7.738;2023-02-01T01:10:10;17.83;;;7.60;;
3845;SDS011;1938;50.812;7.738;2023-02-01T01:12:36;20.40;;;10.53;;
3845;SDS011;1938;50.812;7.738;2023-02-01T01:15:01;19.27;;;8.10;;
3845;SDS011;1938;50.812;7.738;2023-02-01T01:17:27;27.13;;;11.60;;
3845;SDS011;1938;50.812;7.738;2023-02-01T01:19:53;38.00;;;13.13;;
3845;SDS011;1938;50.812;7.738;2023-02-01T01:22:18;32.80;;;13.30;;
3845;SDS011;1938;50.812;7.738;2023-02-01T01:24:44;31.33;;;13.93;;
3845;SDS011;1938;50.812;7.738;2023-02-01T01:27:09;29.00;;;12.77;;
3845;SDS011;1938;50.812;7.738;2023-02-01T01:29:35;36.80;;;11.70;;
3845;SDS011;1938;50.812;7.738;2023-02-01T01:32:02;17.73;;;8.17;;
3845;SDS011;1938;50.812;7.738;2023-02-01T01:34:28;22.83;;;10.20;;
3845;SDS011;1938;50.812;7.738;2023-02-01T01:36:53;13.87;;;6.97;;
3845;SDS011;1938;50.812;7.738;2023-02-01T01:39:19;22.50;;;8.77;;
3845;SDS011;1938;50.812;7.738;2023-02-01T01:41:44;26.30;;;9.80;;
3845;SDS011;1938;50.812;7.738;2023-02-01T01:47:13;18.07;;;6.60;;
3845;SDS011;1938;50.812;7.738;2023-02-01T01:49:40;26.40;;;8.53;;
3845;SDS011;1938;50.812;7.738;2023-02-01T01:52:06;9.80;;;5.50;;
3845;SDS011;1938;50.812;7.738;2023-02-01T01:57:04;18.90;;;7.97;;
3845;SDS011;1938;50.812;7.738;2023-02-01T01:59:36;12.63;;;5.17;;
3845;SDS011;1938;50.812;7.738;2023-02-01T02:02:04;12.67;;;5.37;;
3845;SDS011;1938;50.812;7.738;2023-02-01T02:04:30;19.03;;;7.77;;
3845;SDS011;1938;50.812;7.738;2023-02-01T02:06:59;11.60;;;5.47;;
3845;SDS011;1938;50.812;7.738;2023-02-01T02:09:29;15.37;;;7.77;;
3845;SDS011;1938;50.812;7.738;2023-02-01T02:11:54;18.23;;;5.00;;
3845;SDS011;1938;50.812;7.738;2023-02-01T02:14:20;10.63;;;3.63;;
3845;SDS011;1938;50.812;7.738;2023-02-01T02:19:37;13.57;;;5.50;;
3845;SDS011;1938;50.812;7.738;2023-02-01T02:25:12;9.33;;;3.90;;
3845;SDS011;1938;50.812;7.738;2023-02-01T02:36:18;16.73;;;4.13;;
3845;SDS011;1938;50.812;7.738;2023-02-01T02:41:23;11.53;;;3.90;;
3845;SDS011;1938;50.812;7.738;2023-02-01T02:47:21;15.33;;;3.80;;
3845;SDS011;1938;50.812;7.738;2023-02-01T02:50:10;15.10;;;3.20;;
3845;SDS011;1938;50.812;7.738;2023-02-01T02:53:04;16.17;;;4.03;;
3845;SDS011;1938;50.812;7.738;2023-02-01T02:55:54;9.80;;;3.57;;
3845;SDS011;1938;50.812;7.738;2023-02-01T02:58:40;7.23;;;2.53;;
3845;SDS011;1938;50.812;7.738;2023-02-01T03:01:27;5.43;;;1.60;;
3845;SDS011;1938;50.812;7.738;2023-02-01T03:04:12;5.27;;;2.83;;
3845;SDS011;1938;50.812;7.738;2023-02-01T03:06:42;4.60;;;1.70;;
3845;SDS011;1938;50.812;7.738;2023-02-01T03:09:33;9.97;;;2.03;;
3845;SDS011;1938;50.812;7.738;2023-02-01T03:12:03;21.20;;;3.57;;
3845;SDS011;1938;50.812;7.738;2023-02-01T03:14:56;8.23;;;3.10;;
3845;SDS011;1938;50.812;7.738;2023-02-01T03:17:27;5.23;;;2.20;;
3845;SDS011;1938;50.812;7.738;2023-02-01T03:19:59;9.53;;;2.13;;
3845;SDS011;1938;50.812;7.738;2023-02-01T03:22:29;12.30;;;4.33;;
3845;SDS011;1938;50.812;7.738;2023-02-01T03:25:00;8.83;;;2.23;;
3845;SDS011;1938;50.812;7.738;2023-02-01T03:27:34;13.20;;;3.20;;
3845;SDS011;1938;50.812;7.738;2023-02-01T03:30:07;7.50;;;2.80;;
3845;SDS011;1938;50.812;7.738;2023-02-01T03:32:34;7.63;;;1.73;;
3845;SDS011;1938;50.812;7.738;2023-02-01T03:35:23;3.00;;;2.07;;
3845;SDS011;1938;50.812;7.738;2023-02-01T03:38:19;16.60;;;3.23;;
3845;SDS011;1938;50.812;7.738;2023-02-01T03:41:00;2.93;;;1.20;;
3845;SDS011;1938;50.812;7.738;2023-02-01T03:43:47;20.07;;;4.00;;
3845;SDS011;1938;50.812;7.738;2023-02-01T03:46:16;7.30;;;2.87;;
3845;SDS011;1938;50.812;7.738;2023-02-01T03:48:45;7.70;;;2.80;;
3845;SDS011;1938;50.812;7.738;2023-02-01T03:51:12;7.60;;;3.20;;
3845;SDS011;1938;50.812;7.738;2023-02-01T03:53:39;10.30;;;2.70;;
3845;SDS011;1938;50.812;7.738;2023-02-01T03:56:07;5.93;;;2.57;;
3845;SDS011;1938;50.812;7.738;2023-02-01T03:58:36;12.57;;;3.87;;
3845;SDS011;1938;50.812;7.738;2023-02-01T04:01:02;12.80;;;2.93;;
3845;SDS011;1938;50.812;7.738;2023-02-01T04:03:27;6.93;;;1.77;;
3845;SDS011;1938;50.812;7.738;2023-02-01T04:05:53;10.70;;;2.40;;
3845;SDS011;1938;50.812;7.738;2023-02-01T04:08:20;8.30;;;2.80;;
3845;SDS011;1938;50.812;7.738;2023-02-01T04:10:46;14.13;;;3.20;;
3845;SDS011;1938;50.812;7.738;2023-02-01T04:13:12;5.80;;;2.20;;
3845;SDS011;1938;50.812;7.738;2023-02-01T04:15:37;18.07;;;3.57;;
3845;SDS011;1938;50.812;7.738;2023-02-01T04:18:03;3.63;;;2.50;;
3845;SDS011;1938;50.812;7.738;2023-02-01T04:20:30;10.60;;;3.03;;
3845;SDS011;1938;50.812;7.738;2023-02-01T04:22:57;8.93;;;3.73;;
3845;SDS011;1938;50.812;7.738;2023-02-01T04:25:22;14.03;;;2.90;;
3845;SDS011;1938;50.812;7.738;2023-02-01T04:27:48;5.47;;;2.33;;
3845;SDS011;1938;50.812;7.738;2023-02-01T04:30:14;5.23;;;2.17;;
3845;SDS011;1938;50.812;7.738;2023-02-01T04:32:40;7.00;;;2.50;;
3845;SDS011;1938;50.812;7.738;2023-02-01T04:35:06;17.00;;;3.80;;
3845;SDS011;1938;50.812;7.738;2023-02-01T04:37:32;13.60;;;3.67;;
3845;SDS011;1938;50.812;7.738;2023-02-01T04:39:59;9.83;;;3.37;;
3845;SDS011;1938;50.812;7.738;2023-02-01T04:42:24;17.63;;;4.00;;
3845;SDS011;1938;50.812;7.738;2023-02-01T04:44:50;9.33;;;2.43;;
3845;SDS011;1938;50.812;7.738;2023-02-01T04:47:16;14.37;;;4.10;;
3845;SDS011;1938;50.812;7.738;2023-02-01T04:49:41;18.10;;;5.10;;
3845;SDS011;1938;50.812;7.738;2023-02-01T04:52:08;17.20;;;5.47;;
3845;SDS011;1938;50.812;7.738;2023-02-01T04:54:34;17.70;;;4.90;;
3845;SDS011;1938;50.812;7.738;2023-02-01T04:56:59;18.93;;;5.70;;
3845;SDS011;1938;50.812;7.738;2023-02-01T04:59:25;14.43;;;4.00;;
3845;SDS011;1938;50.812;7.738;2023-02-01T05:01:52;7.83;;;2.47;;
3845;SDS011;1938;50.812;7.738;2023-02-01T05:04:17;15.77;;;4.10;;
3845;SDS011;1938;50.812;7.738;2023-02-01T05:06:43;19.50;;;3.60;;
3845;SDS011;1938;50.812;7.738;2023-02-01T05:09:09;11.53;;;4.83;;
3845;SDS011;1938;50.812;7.738;2023-02-01T05:11:36;11.07;;;3.60;;
3845;SDS011;1938;50.812;7.738;2023-02-01T05:14:21;17.50;;;2.90;;
3845;SDS011;1938;50.812;7.738;2023-02-01T05:16:46;10.87;;;3.40;;
3845;SDS011;1938;50.812;7.738;2023-02-01T05:19:12;10.30;;;2.17;;
3845;SDS011;1938;50.812;7.738;2023-02-01T05:21:38;6.67;;;2.80;;
3845;SDS011;1938;50.812;7.738;2023-02-01T05:24:04;10.80;;;2.03;;
3845;SDS011;1938;50.812;7.738;2023-02-01T05:26:39;9.87;;;3.23;;
3845;SDS011;1938;50.812;7.738;2023-02-01T05:29:05;12.57;;;3.43;;
3845;SDS011;1938;50.812;7.738;2023-02-01T05:31:32;15.13;;;2.80;;
3845;SDS011;1938;50.812;7.738;2023-02-01T05:33:57;4.90;;;2.90;;
3845;SDS011;1938;50.812;7.738;2023-02-01T05:36:23;9.63;;;2.70;;
3845;SDS011;1938;50.812;7.738;2023-02-01T05:38:49;14.50;;;3.33;;
3845;SDS011;1938;50.812;7.738;2023-02-01T05:41:15;16.47;;;3.90;;
3845;SDS011;1938;50.812;7.738;2023-02-01T05:43:41;19.83;;;3.00;;
3845;SDS011;1938;50.812;7.738;2023-02-01T05:46:09;12.53;;;2.60;;
3845;SDS011;1938;50.812;7.738;2023-02-01T05:48:37;11.47;;;3.60;;
3845;SDS011;1938;50.812;7.738;2023-02-01T05:51:07;14.30;;;3.30;;
3845;SDS011;1938;50.812;7.738;2023-02-01T05:53:33;14.00;;;4.80;;
3845;SDS011;1938;50.812;7.738;2023-02-01T05:55:58;13.70;;;4.53;;
3845;SDS011;1938;50.812;7.738;2023-02-01T05:58:24;11.00;;;3.10;;
3845;SDS011;1938;50.812;7.738;2023-02-01T06:00:49;18.97;;;4.77;;
3845;SDS011;1938;50.812;7.738;2023-02-01T06:03:16;7.97;;;2.50;;
3845;SDS011;1938;50.812;7.738;2023-02-01T06:05:45;10.60;;;2.93;;
3845;SDS011;1938;50.812;7.738;2023-02-01T06:08:12;12.70;;;3.77;;
3845;SDS011;1938;50.812;7.738;2023-02-01T06:10:37;14.30;;;4.90;;
3845;SDS011;1938;50.812;7.738;2023-02-01T06:13:03;19.53;;;4.00;;
3845;SDS011;1938;50.812;7.738;2023-02-01T06:15:29;12.80;;;3.90;;
3845;SDS011;1938;50.812;7.738;2023-02-01T06:17:56;14.10;;;4.33;;
3845;SDS011;1938;50.812;7.738;2023-02-01T06:20:21;63.43;;;4.20;;
3845;SDS011;1938;50.812;7.738;2023-02-01T06:22:48;18.93;;;2.70;;
3845;SDS011;1938;50.812;7.738;2023-02-01T06:25:14;6.17;;;2.23;;
3845;SDS011;1938;50.812;7.738;2023-02-01T06:27:41;10.87;;;3.60;;
3845;SDS011;1938;50.812;7.738;2023-02-01T06:30:09;8.70;;;4.50;;
3845;SDS011;1938;50.812;7.738;2023-02-01T06:32:38;5.53;;;2.90;;
3845;SDS011;1938;50.812;7.738;2023-02-01T06:35:05;7.70;;;3.00;;
3845;SDS011;1938;50.812;7.738;2023-02-01T06:37:41;11.20;;;3.53;;
3845;SDS011;1938;50.812;7.738;2023-02-01T06:40:07;18.80;;;3.80;;
3845;SDS011;1938;50.812;7.738;2023-02-01T06:42:33;7.67;;;3.23;;
3845;SDS011;1938;50.812;7.738;2023-02-01T06:44:59;15.07;;;4.20;;
3845;SDS011;1938;50.812;7.738;2023-02-01T06:47:25;10.50;;;4.10;;
3845;SDS011;1938;50.812;7.738;2023-02-01T06:49:51;7.37;;;2.57;;
3845;SDS011;1938;50.812;7.738;2023-02-01T06:52:17;11.33;;;3.50;;
3845;SDS011;1938;50.812;7.738;2023-02-01T06:54:42;11.90;;;3.80;;
3845;SDS011;1938;50.812;7.738;2023-02-01T06:57:09;16.17;;;4.90;;
3845;SDS011;1938;50.812;7.738;2023-02-01T06:59:34;12.40;;;4.20;;
3845;SDS011;1938;50.812;7.738;2023-02-01T07:02:00;9.40;;;4.37;;
3845;SDS011;1938;50.812;7.738;2023-02-01T07:04:25;11.87;;;4.17;;
3845;SDS011;1938;50.812;7.738;2023-02-01T07:06:52;21.00;;;5.10;;
3845;SDS011;1938;50.812;7.738;2023-02-01T07:09:17;20.10;;;5.20;;
3845;SDS011;1938;50.812;7.738;2023-02-01T07:11:43;12.50;;;4.00;;
3845;SDS011;1938;50.812;7.738;2023-02-01T07:14:12;20.07;;;4.23;;
3845;SDS011;1938;50.812;7.738;2023-02-01T07:16:38;19.00;;;5.33;;
3845;SDS011;1938;50.812;7.738;2023-02-01T07:19:04;17.13;;;4.27;;
3845;SDS011;1938;50.812;7.738;2023-02-01T07:21:30;20.03;;;4.53;;
3845;SDS011;1938;50.812;7.738;2023-02-01T07:23:55;17.43;;;4.60;;
3845;SDS011;1938;50.812;7.738;2023-02-01T07:26:21;27.13;;;3.93;;
3845;SDS011;1938;50.812;7.738;2023-02-01T07:28:47;14.40;;;4.00;;
3845;SDS011;1938;50.812;7.738;2023-02-01T07:31:13;12.03;;;4.10;;
3845;SDS011;1938;50.812;7.738;2023-02-01T07:33:45;27.37;;;4.87;;
3845;SDS011;1938;50.812;7.738;2023-02-01T07:36:14;14.83;;;3.70;;
3845;SDS011;1938;50.812;7.738;2023-02-01T07:38:41;12.53;;;4.17;;
3845;SDS011;1938;50.812;7.738;2023-02-01T07:41:07;10.63;;;3.40;;
3845;SDS011;1938;50.812;7.738;2023-02-01T07:43:34;27.77;;;5.60;;
3845;SDS011;1938;50.812;7.738;2023-02-01T07:46:01;17.73;;;5.43;;
3845;SDS011;1938;50.812;7.738;2023-02-01T07:48:27;20.97;;;5.07;;
3845;SDS011;1938;50.812;7.738;2023-02-01T07:50:57;18.40;;;5.20;;
3845;SDS011;1938;50.812;7.738;2023-02-01T07:53:25;11.10;;;4.47;;
3845;SDS011;1938;50.812;7.738;2023-02-01T07:55:51;28.77;;;5.60;;
3845;SDS011;1938;50.812;7.738;2023-02-01T07:58:17;18.43;;;4.43;;
3845;SDS011;1938;50.812;7.738;2023-02-01T08:00:42;18.97;;;4.00;;
3845;SDS011;1938;50.812;7.738;2023-02-01T08:03:26;18.87;;;5.13;;
3845;SDS011;1938;50.812;7.738;2023-02-01T08:05:56;17.23;;;4.63;;
3845;SDS011;1938;50.812;7.738;2023-02-01T08:08:22;22.10;;;3.73;;
3845;SDS011;1938;50.812;7.738;2023-02-01T08:10:47;15.63;;;3.60;;
3845;SDS011;1938;50.812;7.738;2023-02-01T08:13:14;18.17;;;5.87;;
3845;SDS011;1938;50.812;7.738;2023-02-01T08:15:39;12.50;;;3.13;;
3845;SDS011;1938;50.812;7.738;2023-02-01T08:18:06;10.60;;;4.47;;
3845;SDS011;1938;50.812;7.738;2023-02-01T08:20:32;23.60;;;4.27;;
3845;SDS011;1938;50.812;7.738;2023-02-01T08:23:00;11.23;;;3.87;;
3845;SDS011;1938;50.812;7.738;2023-02-01T08:25:25;16.00;;;5.07;;
3845;SDS011;1938;50.812;7.738;2023-02-01T08:27:52;17.73;;;4.90;;
3845;SDS011;1938;50.812;7.738;2023-02-01T08:30:19;11.70;;;4.40;;
3845;SDS011;1938;50.812;7.738;2023-02-01T08:32:46;22.17;;;4.60;;
3845;SDS011;1938;50.812;7.738;2023-02-01T08:35:12;17.13;;;4.60;;
3845;SDS011;1938;50.812;7.738;2023-02-01T08:37:37;11.97;;;3.43;;
3845;SDS011;1938;50.812;7.738;2023-02-01T08:40:04;9.53;;;4.00;;
3845;SDS011;1938;50.812;7.738;2023-02-01T08:42:30;13.83;;;2.90;;
3845;SDS011;1938;50.812;7.738;2023-02-01T08:45:15;10.27;;;3.13;;
3845;SDS011;1938;50.812;7.738;2023-02-01T08:47:40;4.87;;;2.57;;
3845;SDS011;1938;50.812;7.738;2023-02-01T08:50:06;8.90;;;3.40;;
3845;SDS011;1938;50.812;7.738;2023-02-01T08:52:33;10.40;;;2.73;;
3845;SDS011;1938;50.812;7.738;2023-02-01T08:54:59;21.00;;;5.40;;
3845;SDS011;1938;50.812;7.738;2023-02-01T08:57:24;9.37;;;3.47;;
3845;SDS011;1938;50.812;7.738;2023-02-01T08:59:51;13.30;;;3.20;;
3845;SDS011;1938;50.812;7.738;2023-02-01T09:02:17;8.73;;;2.63;;
3845;SDS011;1938;50.812;7.738;2023-02-01T09:04:44;7.80;;;2.83;;
3845;SDS011;1938;50.812;7.738;2023-02-01T09:07:09;21.63;;;4.60;;
3845;SDS011;1938;50.812;7.738;2023-02-01T09:09:36;15.87;;;4.40;;
3845;SDS011;1938;50.812;7.738;2023-02-01T09:12:02;7.80;;;2.87;;
3845;SDS011;1938;50.812;7.738;2023-02-01T09:14:28;11.07;;;2.93;;
3845;SDS011;1938;50.812;7.738;2023-02-01T09:16:55;11.07;;;2.10;;
3845;SDS011;1938;50.812;7.738;2023-02-01T09:19:20;7.10;;;3.07;;
3845;SDS011;1938;50.812;7.738;2023-02-01T09:21:46;24.20;;;5.70;;
3845;SDS011;1938;50.812;7.738;2023-02-01T09:24:11;8.47;;;4.30;;
3845;SDS011;1938;50.812;7.738;2023-02-01T09:26:37;10.20;;;2.70;;
3845;SDS011;1938;50.812;7.738;2023-02-01T09:29:03;17.70;;;3.13;;
3845;SDS011;1938;50.812;7.738;2023-02-01T09:31:34;18.57;;;3.83;;
3845;SDS011;1938;50.812;7.738;2023-02-01T09:34:00;17.17;;;4.20;;
3845;SDS011;1938;50.812;7.738;2023-02-01T09:36:26;9.73;;;3.00;;
3845;SDS011;1938;50.812;7.738;2023-02-01T09:38:52;23.93;;;3.43;;
3845;SDS011;1938;50.812;7.738;2023-02-01T09:46:54;9.30;;;3.00;;
3845;SDS011;1938;50.812;7.738;2023-02-01T09:49:29;10.43;;;2.73;;
3845;SDS011;1938;50.812;7.738;2023-02-01T09:52:04;13.60;;;2.93;;
3845;SDS011;1938;50.812;7.738;2023-02-01T09:54:48;6.53;;;2.50;;
3845;SDS011;1938;50.812;7.738;2023-02-01T09:57:53;14.83;;;2.73;;
3845;SDS011;1938;50.812;7.738;2023-02-01T10:00:40;10.63;;;3.93;;
3845;SDS011;1938;50.812;7.738;2023-02-01T10:03:05;10.63;;;3.13;;
3845;SDS011;1938;50.812;7.738;2023-02-01T10:06:16;8.63;;;2.90;;
3845;SDS011;1938;50.812;7.738;2023-02-01T10:25:56;8.10;;;3.30;;
3845;SDS011;1938;50.812;7.738;2023-02-01T10:28:37;17.20;;;4.30;;
3845;SDS011;1938;50.812;7.738;2023-02-01T10:31:04;17.27;;;4.43;;
3845;SDS011;1938;50.812;7.738;2023-02-01T10:33:34;7.87;;;3.70;;
3845;SDS011;1938;50.812;7.738;2023-02-01T10:38:53;12.20;;;4.13;;
3845;SDS011;1938;50.812;7.738;2023-02-01T10:41:23;15.00;;;3.57;;
3845;SDS011;1938;50.812;7.738;2023-02-01T10:43:55;16.97;;;4.63;;
3845;SDS011;1938;50.812;7.738;2023-02-01T10:46:23;14.00;;;4.87;;
3845;SDS011;1938;50.812;7.738;2023-02-01T10:48:50;13.87;;;3.50;;
3845;SDS011;1938;50.812;7.738;2023-02-01T10:51:21;14.53;;;3.03;;
3845;SDS011;1938;50.812;7.738;2023-02-01T10:53:55;13.37;;;3.37;;
3845;SDS011;1938;50.812;7.738;2023-02-01T10:56:26;19.93;;;4.50;;
3845;SDS011;1938;50.812;7.738;2023-02-01T10:58:59;10.40;;;4.10;;
3845;SDS011;1938;50.812;7.738;2023-02-01T11:01:30;16.23;;;6.00;;
3845;SDS011;1938;50.812;7.738;2023-02-01T11:04:05;13.87;;;6.00;;
3845;SDS011;1938;50.812;7.738;2023-02-01T11:06:39;12.53;;;3.60;;
3845;SDS011;1938;50.812;7.738;2023-02-01T11:09:22;16.63;;;4.97;;
3845;SDS011;1938;50.812;7.738;2023-02-01T11:16:53;20.90;;;4.87;;
3845;SDS011;1938;50.812;7.738;2023-02-01T11:19:21;25.03;;;4.23;;
3845;SDS011;1938;50.812;7.738;2023-02-01T11:21:53;14.43;;;3.43;;
3845;SDS011;1938;50.812;7.738;2023-02-01T11:27:01;14.00;;;3.43;;
3845;SDS011;1938;50.812;7.738;2023-02-01T11:29:38;17.70;;;4.20;;
3845;SDS011;1938;50.812;7.738;2023-02-01T11:32:07;20.57;;;4.73;;
3845;SDS011;1938;50.812;7.738;2023-02-01T11:34:38;12.27;;;3.33;;
3845;SDS011;1938;50.812;7.738;2023-02-01T11:37:27;17.20;;;4.10;;
3845;SDS011;1938;50.812;7.738;2023-02-01T11:40:23;24.20;;;3.90;;
3845;SDS011;1938;50.812;7.738;2023-02-01T11:42:54;9.13;;;3.47;;
3845;SDS011;1938;50.812;7.738;2023-02-01T11:45:24;11.10;;;4.00;;
3845;SDS011;1938;50.812;7.738;2023-02-01T11:47:52;3.53;;;2.03;;
3845;SDS011;1938;50.812;7.738;2023-02-01T11:50:22;19.63;;;4.57;;
3845;SDS011;1938;50.812;7.738;2023-02-01T12:01:49;9.67;;;3.23;;
3845;SDS011;1938;50.812;7.738;2023-02-01T12:08:00;4.97;;;2.63;;
3845;SDS011;1938;50.812;7.738;2023-02-01T12:10:19;7.70;;;3.10;;
3845;SDS011;1938;50.812;7.738;2023-02-01T12:13:10;10.93;;;2.20;;
3845;SDS011;1938;50.812;7.738;2023-02-01T12:24:02;11.43;;;2.87;;
3845;SDS011;1938;50.812;7.738;2023-02-01T12:41:38;7.07;;;2.87;;
3845;SDS011;1938;50.812;7.738;2023-02-01T12:46:58;15.67;;;2.87;;
3845;SDS011;1938;50.812;7.738;2023-02-01T12:52:40;12.03;;;2.53;;
3845;SDS011;1938;50.812;7.738;2023-02-01T12:55:17;9.13;;;2.37;;
3845;SDS011;1938;50.812;7.738;2023-02-01T12:58:06;5.57;;;2.90;;
3845;SDS011;1938;50.812;7.738;2023-02-01T13:01:00;4.23;;;1.87;;
3845;SDS011;1938;50.812;7.738;2023-02-01T13:06:04;9.03;;;2.13;;
3845;SDS011;1938;50.812;7.738;2023-02-01T13:08:49;10.70;;;2.90;;
3845;SDS011;1938;50.812;7.738;2023-02-01T13:11:34;6.90;;;2.40;;
3845;SDS011;1938;50.812;7.738;2023-02-01T13:14:27;11.77;;;2.73;;
3845;SDS011;1938;50.812;7.738;2023-02-01T13:17:18;11.37;;;2.57;;
3845;SDS011;1938;50.812;7.738;2023-02-01T13:19:49;14.57;;;2.47;;
3845;SDS011;1938;50.812;7.738;2023-02-01T13:22:34;12.77;;;2.50;;
3845;SDS011;1938;50.812;7.738;2023-02-01T13:25:13;4.70;;;2.23;;
3845;SDS011;1938;50.812;7.738;2023-02-01T13:27:43;14.20;;;4.20;;
3845;SDS011;1938;50.812;7.738;2023-02-01T13:32:45;8.37;;;2.30;;
3845;SDS011;1938;50.812;7.738;2023-02-01T13:35:19;5.83;;;1.90;;
3845;SDS011;1938;50.812;7.738;2023-02-01T13:40:46;6.77;;;2.40;;
3845;SDS011;1938;50.812;7.738;2023-02-01T13:43:29;7.97;;;2.43;;
3845;SDS011;1938;50.812;7.738;2023-02-01T13:45:57;13.77;;;2.77;;
3845;SDS011;1938;50.812;7.738;2023-02-01T13:49:16;3.60;;;1.40;;
3845;SDS011;1938;50.812;7.738;2023-02-01T13:51:18;4.97;;;2.07;;
3845;SDS011;1938;50.812;7.738;2023-02-01T13:54:33;11.93;;;1.70;;
3845;SDS011;1938;50.812;7.738;2023-02-01T13:57:04;15.27;;;3.90;;
3845;SDS011;1938;50.812;7.738;2023-02-01T14:05:10;20.10;;;2.33;;
3845;SDS011;1938;50.812;7.738;2023-02-01T14:13:29;10.07;;;2.67;;
3845;SDS011;1938;50.812;7.738;2023-02-01T14:26:23;10.60;;;3.17;;
3845;SDS011;1938;50.812;7.738;2023-02-01T14:29:03;16.63;;;3.93;;
3845;SDS011;1938;50.812;7.738;2023-02-01T14:31:54;8.17;;;2.37;;
3845;SDS011;1938;50.812;7.738;2023-02-01T14:47:53;10.80;;;2.23;;
3845;SDS011;1938;50.812;7.738;2023-02-01T15:01:22;9.53;;;2.60;;
3845;SDS011;1938;50.812;7.738;2023-02-01T15:14:19;10.20;;;3.83;;
3845;SDS011;1938;50.812;7.738;2023-02-01T15:16:46;10.07;;;2.60;;
3845;SDS011;1938;50.812;7.738;2023-02-01T15:19:18;22.30;;;2.60;;
3845;SDS011;1938;50.812;7.738;2023-02-01T15:21:49;3.23;;;1.63;;
3845;SDS011;1938;50.812;7.738;2023-02-01T15:24:21;11.40;;;1.87;;
3845;SDS011;1938;50.812;7.738;2023-02-01T15:26:52;8.00;;;2.33;;
3845;SDS011;1938;50.812;7.738;2023-02-01T15:29:19;6.13;;;1.17;;
3845;SDS011;1938;50.812;7.738;2023-02-01T15:31:47;10.00;;;2.20;;
3845;SDS011;1938;50.812;7.738;2023-02-01T15:34:14;5.60;;;2.40;;
3845;SDS011;1938;50.812;7.738;2023-02-01T15:36:41;13.87;;;2.40;;
3845;SDS011;1938;50.812;7.738;2023-02-01T15:39:14;11.33;;;2.90;;
3845;SDS011;1938;50.812;7.738;2023-02-01T15:41:48;8.97;;;1.73;;
3845;SDS011;1938;50.812;7.738;2023-02-01T15:44:19;5.47;;;1.70;;
3845;SDS011;1938;50.812;7.738;2023-02-01T15:46:46;11.47;;;2.20;;
3845;SDS011;1938;50.812;7.738;2023-02-01T15:49:17;4.60;;;1.97;;
3845;SDS011;1938;50.812;7.738;2023-02-01T15:51:49;4.80;;;1.60;;
3845;SDS011;1938;50.812;7.738;2023-02-01T15:54:22;4.33;;;1.60;;
3845;SDS011;1938;50.812;7.738;2023-02-01T15:56:55;8.40;;;2.50;;
3845;SDS011;1938;50.812;7.738;2023-02-01T15:59:35;12.57;;;2.73;;
3845;SDS011;1938;50.812;7.738;2023-02-01T16:02:23;5.40;;;1.80;;
3845;SDS011;1938;50.812;7.738;2023-02-01T16:04:58;6.30;;;2.60;;
3845;SDS011;1938;50.812;7.738;2023-02-01T16:07:25;9.53;;;3.73;;
3845;SDS011;1938;50.812;7.738;2023-02-01T16:09:55;11.90;;;1.50;;
3845;SDS011;1938;50.812;7.738;2023-02-01T16:12:32;16.97;;;2.63;;
3845;SDS011;1938;50.812;7.738;2023-02-01T16:15:01;11.30;;;2.80;;
3845;SDS011;1938;50.812;7.738;2023-02-01T16:17:27;6.47;;;2.10;;
3845;SDS011;1938;50.812;7.738;2023-02-01T16:19:52;7.57;;;2.20;;
3845;SDS011;1938;50.812;7.738;2023-02-01T16:22:18;13.40;;;3.23;;
3845;SDS011;1938;50.812;7.738;2023-02-01T16:24:44;11.40;;;3.27;;
3845;SDS011;1938;50.812;7.738;2023-02-01T16:27:09;18.13;;;5.40;;
3845;SDS011;1938;50.812;7.738;2023-02-01T16:29:35;18.67;;;3.47;;
3845;SDS011;1938;50.812;7.738;2023-02-01T16:32:02;8.00;;;3.17;;
3845;SDS011;1938;50.812;7.738;2023-02-01T16:34:28;10.30;;;3.77;;
3845;SDS011;1938;50.812;7.738;2023-02-01T16:36:55;10.93;;;3.80;;
3845;SDS011;1938;50.812;7.738;2023-02-01T16:39:22;15.37;;;3.07;;
3845;SDS011;1938;50.812;7.738;2023-02-01T16:41:48;8.87;;;2.80;;
3845;SDS011;1938;50.812;7.738;2023-02-01T16:44:15;10.77;;;3.90;;
3845;SDS011;1938;50.812;7.738;2023-02-01T16:46:42;26.33;;;4.07;;
3845;SDS011;1938;50.812;7.738;2023-02-01T16:49:17;13.03;;;3.00;;
3845;SDS011;1938;50.812;7.738;2023-02-01T16:51:48;17.40;;;4.13;;
3845;SDS011;1938;50.812;7.738;2023-02-01T16:54:17;9.77;;;3.07;;
3845;SDS011;1938;50.812;7.738;2023-02-01T16:56:44;15.43;;;3.37;;
3845;SDS011;1938;50.812;7.738;2023-02-01T16:59:11;14.17;;;3.43;;
3845;SDS011;1938;50.812;7.738;2023-02-01T17:01:36;20.83;;;3.70;;
3845;SDS011;1938;50.812;7.738;2023-02-01T17:04:03;9.23;;;3.50;;
3845;SDS011;1938;50.812;7.738;2023-02-01T17:06:29;15.30;;;4.57;;
3845;SDS011;1938;50.812;7.738;2023-02-01T17:08:57;14.53;;;4.47;;
3845;SDS011;1938;50.812;7.738;2023-02-01T17:11:24;15.33;;;4.40;;
3845;SDS011;1938;50.812;7.738;2023-02-01T17:13:50;12.73;;;4.07;;
3845;SDS011;1938;50.812;7.738;2023-02-01T17:18:59;11.50;;;4.60;;
3845;SDS011;1938;50.812;7.738;2023-02-01T17:21:30;12.23;;;4.03;;
3845;SDS011;1938;50.812;7.738;2023-02-01T17:24:04;16.93;;;6.77;;
3845;SDS011;1938;50.812;7.738;2023-02-01T17:26:30;18.47;;;4.60;;
3845;SDS011;1938;50.812;7.738;2023-02-01T17:28:56;16.97;;;3.87;;
3845;SDS011;1938;50.812;7.738;2023-02-01T17:31:22;16.27;;;4.70;;
3845;SDS011;1938;50.812;7.738;2023-02-01T17:33:48;10.60;;;3.90;;
3845;SDS011;1938;50.812;7.738;2023-02-01T17:36:15;18.80;;;4.80;;
3845;SDS011;1938;50.812;7.738;2023-02-01T17:38:42;19.60;;;4.47;;
3845;SDS011;1938;50.812;7.738;2023-02-01T17:41:11;16.00;;;3.73;;
3845;SDS011;1938;50.812;7.738;2023-02-01T17:43:38;14.87;;;4.20;;
3845;SDS011;1938;50.812;7.738;2023-02-01T17:46:12;11.63;;;4.83;;
3845;SDS011;1938;50.812;7.738;2023-02-01T17:48:39;20.20;;;5.37;;
3845;SDS011;1938;50.812;7.738;2023-02-01T17:51:12;12.50;;;5.00;;
3845;SDS011;1938;50.812;7.738;2023-02-01T17:53:44;8.03;;;2.47;;
3845;SDS011;1938;50.812;7.738;2023-02-01T17:56:12;6.07;;;3.57;;
3845;SDS011;1938;50.812;7.738;2023-02-01T17:58:39;6.83;;;2.50;;
3845;SDS011;1938;50.812;7.738;2023-02-01T18:01:04;17.37;;;4.10;;
3845;SDS011;1938;50.812;7.738;2023-02-01T18:03:30;5.37;;;2.77;;
3845;SDS011;1938;50.812;7.738;2023-02-01T18:06:00;7.20;;;3.60;;
3845;SDS011;1938;50.812;7.738;2023-02-01T18:08:28;5.97;;;2.73;;
3845;SDS011;1938;50.812;7.738;2023-02-01T18:10:58;10.63;;;5.10;;
3845;SDS011;1938;50.812;7.738;2023-02-01T18:13:28;13.30;;;4.00;;